Talala, Oklahoma
Current Conditions -  °F | °C
As of 9:35 AM on Sunday 21 Dec 2014 (Local Time) from KGCM Reporting Station
Haze Haze  
Wind Chill: 38°   Ceiling: 400
Heat Index: 43°   Visibility: 2.5mi
Dew Point: 43°   Wind: 8mph
Humidity: 100%   Direction: 170°S
Pressure: 30.1"   Gusts: NA
Location:  36.53°N, 95.7°W
Report Text: KGCM 211535Z AUTO 17007KT 2 1/2SM BR BKN004 OVC010 06/06 A3010 RMK AO2
Loading
Personal Weather Stations






























Interactive Weather Map New forecast layout! Learn more

10-Day Weather Forecast

Advertisements
Track Severe Weather on mobile